Time;durP1;ratioP1;P1;durP2;ratioP2;P2;SDS_P1;SDS_P2;PMS_P1;PMS_P2;Temp;Humidity;BMP_temperature;BMP_pressure;BME280_temperature;BME280_humidity;BME280_pressure;Samples;Min_cycle;Max_cycle;Signal;HPM_P1;HPM_P2
2021/07/30 00:00:10;;;;;;;;;;;;;;;26.14;60.29;100582.16;5088565;28;1216;-62
2021/07/30 00:02:36;;;;;;;;;;;;;;;26.15;60.98;100575.84;5088474;28;1909;-61
2021/07/30 00:05:05;;;;;;;;;;;;;;;26.15;59.14;100575.84;5088905;28;1277;-60
2021/07/30 00:07:32;;;;;;;;;;;;;;;26.21;59.88;100575.28;5088572;28;1058;-59
2021/07/30 00:09:58;;;;;;;;;;;;;;;26.16;59.67;100574.88;5088404;28;1193;-60
2021/07/30 00:12:25;;;;;;;;;;;;;;;26.16;58.88;100572.19;5088797;28;1182;-60
2021/07/30 00:14:52;;;;;;;;;;;;;;;26.04;57.97;100563.44;5088440;28;1298;-60
2021/07/30 00:17:18;;;;;;;;;;;;;;;26.01;59.61;100563.72;5088167;28;1152;-61
2021/07/30 00:19:45;;;;;;;;;;;;;;;26.04;58.96;100571.44;5088674;28;1314;-61
2021/07/30 00:22:12;;;;;;;;;;;;;;;26.14;59.67;100563.47;5088407;28;1993;-62
2021/07/30 00:24:38;;;;;;;;;;;;;;;26.19;59.15;100569.25;5087639;28;1279;-62
2021/07/30 00:27:05;;;;;;;;;;;;;;;26.22;59.05;100560.97;5088256;28;1435;-61
2021/07/30 00:29:32;;;;;;;;;;;;;;;26.20;59.02;100557.59;5088056;28;1275;-61
2021/07/30 00:31:58;;;;;;;;;;;;;;;26.15;58.46;100565.16;5088529;28;1038;-62
2021/07/30 00:34:25;;;;;;;;;;;;;;;26.19;58.34;100555.91;5088320;28;1220;-61
2021/07/30 00:36:52;;;;;;;;;;;;;;;26.22;58.21;100552.94;5088313;28;983;-61
2021/07/30 00:39:18;;;;;;;;;;;;;;;26.22;58.15;100555.63;5094101;28;1354;-61
2021/07/30 00:41:45;;;;;;;;;;;;;;;26.16;59.03;100548.16;5110754;28;1965;-62
2021/07/30 00:44:11;;;;;;;;;;;;;;;26.19;57.60;100547.88;5111168;28;1275;-61
2021/07/30 00:46:39;;;;;;;;;;;;;;;26.19;58.62;100541.69;5107107;28;790;-62
2021/07/30 00:49:05;;;;;;;;;;;;;;;26.18;58.52;100551.53;5088732;28;1344;-62
2021/07/30 00:51:32;;;;;;;;;;;;;;;26.06;58.84;100547.28;5088356;28;785;-62
2021/07/30 00:53:59;;;;;;;;;;;;;;;26.13;58.89;100545.75;5088385;28;1267;-62
2021/07/30 00:56:26;;;;;;;;;;;;;;;25.99;59.25;100548.84;5087896;28;1084;-62
2021/07/30 00:58:53;;;;;;;;;;;;;;;26.03;59.21;100545.72;5088276;28;1208;-62
2021/07/30 01:01:20;;;;;;;;;;;;;;;26.05;59.36;100542.94;5088180;28;884;-62
2021/07/30 01:03:47;;;;;;;;;;;;;;;26.06;59.04;100544.59;5088259;28;1918;-61
2021/07/30 01:06:13;;;;;;;;;;;;;;;26.02;58.79;100544.03;5087976;28;813;-62
2021/07/30 01:08:40;;;;;;;;;;;;;;;25.95;59.56;100548.25;5088121;28;1354;-62
2021/07/30 01:11:06;;;;;;;;;;;;;;;26.00;58.55;100550.50;5087906;28;1134;-61
2021/07/30 01:13:36;;;;;;;;;;;;;;;25.90;59.07;100547.00;5087659;28;1256;-62
2021/07/30 01:16:04;;;;;;;;;;;;;;;25.90;58.74;100547.81;5087603;28;921;-62
2021/07/30 01:18:30;;;;;;;;;;;;;;;25.95;59.32;100553.59;5069849;28;1145;-62
2021/07/30 01:21:03;;;;;;;;;;;;;;;25.93;59.15;100547.53;5087350;28;1280;-62
2021/07/30 01:23:29;;;;;;;;;;;;;;;25.96;59.79;100559.78;5088030;28;1914;-59
2021/07/30 01:25:56;;;;;;;;;;;;;;;25.96;59.72;100554.44;5069498;28;1772;-60
2021/07/30 01:28:27;;;;;;;;;;;;;;;25.93;59.85;100552.06;5070255;28;927;-62
2021/07/30 01:30:54;;;;;;;;;;;;;;;25.98;59.78;100552.47;5087699;28;1390;-62
2021/07/30 01:33:21;;;;;;;;;;;;;;;26.04;59.30;100551.91;5086727;28;1093;-62
2021/07/30 01:35:48;;;;;;;;;;;;;;;26.03;59.27;100551.06;5087708;28;1321;-62
2021/07/30 01:38:14;;;;;;;;;;;;;;;26.03;59.41;100558.22;5091254;28;921;-62
2021/07/30 01:40:41;;;;;;;;;;;;;;;25.91;59.38;100551.31;5091534;28;1232;-62
2021/07/30 01:43:08;;;;;;;;;;;;;;;25.97;60.16;100550.78;5090897;28;1909;-62
2021/07/30 01:45:34;;;;;;;;;;;;;;;25.94;59.75;100548.38;5091262;28;1444;-62
2021/07/30 01:48:01;;;;;;;;;;;;;;;25.98;60.83;100552.47;5091194;28;901;-62
2021/07/30 01:50:27;;;;;;;;;;;;;;;25.91;60.23;100540.66;5091083;28;1307;-61
2021/07/30 01:52:54;;;;;;;;;;;;;;;25.96;60.36;100551.78;5090959;28;944;-61
2021/07/30 01:55:23;;;;;;;;;;;;;;;25.94;60.07;100548.38;5090890;28;1323;-61
2021/07/30 01:57:50;;;;;;;;;;;;;;;25.97;60.70;100550.78;5090998;28;1071;-62
2021/07/30 02:00:17;;;;;;;;;;;;;;;25.97;60.52;100545.44;5090471;28;1173;-62
2021/07/30 02:02:44;;;;;;;;;;;;;;;25.92;60.69;100558.38;5090789;28;1979;-62
2021/07/30 02:05:11;;;;;;;;;;;;;;;25.93;61.26;100552.88;5090607;28;1290;-61
2021/07/30 02:07:38;;;;;;;;;;;;;;;25.81;62.08;100547.78;5072179;28;1531;-62
2021/07/30 02:10:06;;;;;;;;;;;;;;;25.92;61.55;100550.34;5090615;28;1228;-62
2021/07/30 02:14:15;;;;;;;;;;;;;;;25.95;61.35;100547.41;5072369;28;1151;-61
2021/07/30 02:15:23;;;;;;;;;;;;;;;25.96;59.98;100541.91;5091193;28;1280;-59
2021/07/30 02:17:49;;;;;;;;;;;;;;;25.89;61.96;100538.13;5090805;28;1007;-62
2021/07/30 02:20:16;;;;;;;;;;;;;;;25.84;61.68;100529.69;5071966;28;1262;-62
2021/07/30 02:22:43;;;;;;;;;;;;;;;25.89;62.25;100530.13;5090080;28;1913;-62
2021/07/30 02:25:10;;;;;;;;;;;;;;;25.93;62.17;100531.53;5090082;28;1220;-62
2021/07/30 02:27:36;;;;;;;;;;;;;;;25.85;61.21;100515.38;5090492;28;897;-62
2021/07/30 02:30:03;;;;;;;;;;;;;;;25.92;62.22;100521.84;5090414;28;1253;-62
2021/07/30 02:32:30;;;;;;;;;;;;;;;25.89;62.91;100521.28;5090029;28;1183;-62
2021/07/30 02:34:57;;;;;;;;;;;;;;;25.83;62.48;100521.84;5089663;28;1325;-62
2021/07/30 02:37:24;;;;;;;;;;;;;;;25.93;62.40;100517.38;5090010;28;1116;-62
2021/07/30 02:39:50;;;;;;;;;;;;;;;25.94;62.12;100519.03;5090090;28;1244;-62
2021/07/30 02:42:17;;;;;;;;;;;;;;;25.92;61.49;100529.00;5089821;28;2020;-62
2021/07/30 02:44:44;;;;;;;;;;;;;;;25.93;62.24;100523.53;5090367;28;1393;-62
2021/07/30 02:47:10;;;;;;;;;;;;;;;25.93;62.06;100514.69;5089444;28;1036;-62
2021/07/30 02:49:37;;;;;;;;;;;;;;;25.93;62.48;100514.69;5090024;28;1319;-62
2021/07/30 02:52:04;;;;;;;;;;;;;;;25.93;62.76;100506.69;5089846;28;1397;-62
2021/07/30 02:54:30;;;;;;;;;;;;;;;25.87;61.79;100508.06;5089776;28;1326;-62
2021/07/30 02:56:57;;;;;;;;;;;;;;;25.88;62.61;100509.75;5089781;28;886;-63
2021/07/30 02:59:24;;;;;;;;;;;;;;;25.86;62.81;100513.56;5090266;28;1152;-62
2021/07/30 03:01:50;;;;;;;;;;;;;;;25.91;61.22;100503.28;5098321;28;778;-60
2021/07/30 03:04:17;;;;;;;;;;;;;;;25.91;61.01;100500.63;5109591;28;1945;-59
2021/07/30 03:06:44;;;;;;;;;;;;;;;25.92;62.16;100502.31;5093899;28;1040;-60
2021/07/30 03:09:10;;;;;;;;;;;;;;;25.82;62.08;100494.31;5091852;28;1263;-61
2021/07/30 03:11:37;;;;;;;;;;;;;;;25.88;62.80;100492.91;5089686;28;798;-60
2021/07/30 03:14:04;;;;;;;;;;;;;;;25.89;62.99;100492.78;5089267;28;1345;-60
2021/07/30 03:16:30;;;;;;;;;;;;;;;25.76;62.52;100499.34;5089682;28;774;-61
2021/07/30 03:18:57;;;;;;;;;;;;;;;25.76;61.38;100494.00;5089164;28;1408;-61
2021/07/30 03:21:24;;;;;;;;;;;;;;;25.76;62.48;100484.19;5089253;28;786;-61
2021/07/30 03:23:50;;;;;;;;;;;;;;;25.81;62.27;100484.59;5089403;28;1925;-60
2021/07/30 03:26:17;;;;;;;;;;;;;;;25.87;61.70;100485.91;5089453;28;1025;-61
2021/07/30 03:28:44;;;;;;;;;;;;;;;25.72;62.95;100477.44;5089789;28;1268;-60
2021/07/30 03:31:11;;;;;;;;;;;;;;;25.83;63.29;100481.81;5089464;28;822;-61
2021/07/30 03:33:37;;;;;;;;;;;;;;;25.84;62.56;100480.84;5089490;28;1251;-60
2021/07/30 03:36:04;;;;;;;;;;;;;;;25.79;61.09;100477.72;5089293;28;988;-61
2021/07/30 03:38:31;;;;;;;;;;;;;;;25.84;63.01;100478.16;5089597;28;1051;-61
2021/07/30 03:41:01;;;;;;;;;;;;;;;25.79;62.74;100481.25;5088826;28;1193;-61
2021/07/30 03:43:28;;;;;;;;;;;;;;;25.72;62.95;100487.25;5088609;28;1910;-60
2021/07/30 03:45:54;;;;;;;;;;;;;;;25.70;62.53;100489.22;5070470;28;1299;-61
2021/07/30 03:48:21;;;;;;;;;;;;;;;25.75;63.56;100486.97;5089044;28;1142;-60
2021/07/30 03:50:48;;;;;;;;;;;;;;;25.80;62.84;100490.09;5088182;28;1216;-60
2021/07/30 03:53:14;;;;;;;;;;;;;;;25.71;63.08;100496.25;5089018;28;1130;-60
2021/07/30 03:55:41;;;;;;;;;;;;;;;25.77;62.46;100496.56;5088883;28;1313;-61
2021/07/30 03:58:08;;;;;;;;;;;;;;;25.68;62.61;100496.53;5089223;28;1329;-60
2021/07/30 04:00:36;;;;;;;;;;;;;;;25.82;62.77;100493.47;5088462;28;1293;-60
2021/07/30 04:03:03;;;;;;;;;;;;;;;25.69;63.31;100504.38;5088782;28;1989;-61
2021/07/30 04:05:30;;;;;;;;;;;;;;;25.68;63.08;100501.88;5088318;28;1209;-60
2021/07/30 04:07:57;;;;;;;;;;;;;;;25.59;63.02;100500.88;5088507;28;1084;-61
2021/07/30 04:10:23;;;;;;;;;;;;;;;25.67;62.36;100506.34;5088514;28;1253;-60
2021/07/30 04:12:50;;;;;;;;;;;;;;;25.70;61.80;100502.56;5088455;28;1050;-60
2021/07/30 04:15:17;;;;;;;;;;;;;;;25.70;62.91;100503.41;5088139;28;1275;-59
2021/07/30 04:17:43;;;;;;;;;;;;;;;25.72;62.59;100497.94;5088605;28;1186;-60
2021/07/30 04:20:10;;;;;;;;;;;;;;;25.71;63.46;100497.09;5087891;28;1318;-60
2021/07/30 04:22:37;;;;;;;;;;;;;;;25.76;62.53;100504.69;5088274;28;1968;-61
2021/07/30 04:25:04;;;;;;;;;;;;;;;25.71;63.33;100505.13;5070138;28;1330;-61
2021/07/30 04:27:30;;;;;;;;;;;;;;;25.74;63.61;100510.16;5088077;28;1047;-60
2021/07/30 04:29:57;;;;;;;;;;;;;;;25.77;63.33;100509.03;5087927;28;1234;-61
2021/07/30 04:32:24;;;;;;;;;;;;;;;25.76;63.97;100515.34;5087805;28;1125;-61
2021/07/30 04:34:50;;;;;;;;;;;;;;;25.81;63.47;100507.78;5087565;28;1212;-61
2021/07/30 04:37:17;;;;;;;;;;;;;;;25.83;63.00;100506.69;5088116;28;1040;-62
2021/07/30 04:39:44;;;;;;;;;;;;;;;25.74;63.91;100506.66;5086809;28;1299;-61
2021/07/30 04:42:10;;;;;;;;;;;;;;;25.78;62.29;100516.06;5087519;28;1422;-61
2021/07/30 04:44:37;;;;;;;;;;;;;;;25.80;62.34;100512.28;5088044;28;1910;-60
2021/07/30 04:47:04;;;;;;;;;;;;;;;25.76;63.59;100512.69;5087743;28;1150;-60
2021/07/30 04:49:30;;;;;;;;;;;;;;;25.75;64.21;100505.66;5087524;28;1315;-61
2021/07/30 04:52:01;;;;;;;;;;;;;;;25.78;64.49;100508.03;5087692;28;1103;-60
2021/07/30 04:54:28;;;;;;;;;;;;;;;25.84;63.12;100502.19;5087710;28;1309;-61
2021/07/30 04:56:54;;;;;;;;;;;;;;;25.74;63.17;100507.50;5087867;28;1083;-61
2021/07/30 04:59:21;;;;;;;;;;;;;;;25.82;60.83;100517.47;5088211;28;1208;-61
2021/07/30 05:01:47;;;;;;;;;;;;;;;25.87;63.42;100515.25;5088155;28;984;-61
2021/07/30 05:04:14;;;;;;;;;;;;;;;25.76;63.98;100515.34;5088115;28;1976;-61
2021/07/30 05:06:41;;;;;;;;;;;;;;;25.81;63.82;100518.44;5069482;28;1700;-61
2021/07/30 05:09:08;;;;;;;;;;;;;;;25.79;64.61;100517.75;5087873;28;1439;-62
2021/07/30 05:11:34;;;;;;;;;;;;;;;25.87;63.33;100523.25;5089323;28;1483;-65
2021/07/30 05:14:01;;;;;;;;;;;;;;;25.84;64.27;100523.53;5092091;28;1266;-63
2021/07/30 05:16:28;;;;;;;;;;;;;;;25.74;64.61;100518.19;5092903;28;836;-64
2021/07/30 05:18:54;;;;;;;;;;;;;;;25.71;64.98;100518.44;5092513;28;1361;-63
2021/07/30 05:21:21;;;;;;;;;;;;;;;25.76;64.75;100521.53;5092022;28;920;-65
2021/07/30 05:23:48;;;;;;;;;;;;;;;25.80;63.30;100512.28;5092322;28;1980;-65
2021/07/30 05:26:15;;;;;;;;;;;;;;;25.87;62.97;100504.56;5092351;28;1059;-64
2021/07/30 05:28:42;;;;;;;;;;;;;;;25.91;63.09;100508.63;5092161;28;1283;-64
2021/07/30 05:31:12;;;;;;;;;;;;;;;25.87;62.41;100497.38;5091429;28;1363;-63
2021/07/30 05:33:39;;;;;;;;;;;;;;;25.91;64.22;100503.28;5090320;28;1369;-64
2021/07/30 05:36:06;;;;;;;;;;;;;;;25.87;62.81;100512.59;5091199;28;864;-64
2021/07/30 05:38:32;;;;;;;;;;;;;;;25.91;64.11;100505.97;5091097;28;1188;-64
2021/07/30 05:40:59;;;;;;;;;;;;;;;25.92;64.60;100508.50;5090931;28;969;-65
2021/07/30 05:43:26;;;;;;;;;;;;;;;25.96;63.68;100512.56;5090508;28;1971;-66
2021/07/30 05:45:52;;;;;;;;;;;;;;;25.87;64.57;100512.59;5090303;28;1228;-63
2021/07/30 05:48:21;;;;;;;;;;;;;;;25.91;64.73;100511.31;5072312;28;1139;-66
2021/07/30 05:50:48;;;;;;;;;;;;;;;25.92;64.49;100515.66;5090444;28;1291;-64
2021/07/30 05:53:15;;;;;;;;;;;;;;;25.90;64.80;100512.31;5090790;28;957;-63
2021/07/30 05:55:41;;;;;;;;;;;;;;;25.98;64.38;100523.13;5091218;28;1617;-64
2021/07/30 05:58:08;;;;;;;;;;;;;;;25.96;64.21;100514.41;5091675;28;1180;-65
2021/07/30 06:00:35;;;;;;;;;;;;;;;25.96;64.58;100522.41;5091188;28;1303;-64
2021/07/30 06:03:02;;;;;;;;;;;;;;;25.99;64.78;100516.81;5073686;28;1138;-64
2021/07/30 06:05:29;;;;;;;;;;;;;;;25.98;64.61;100515.09;5073144;28;1235;-62
2021/07/30 06:07:56;;;;;;;;;;;;;;;26.01;64.30;100514.84;5072800;28;1264;-65
2021/07/30 06:10:23;;;;;;;;;;;;;;;26.01;64.56;100518.34;5090774;28;1231;-64
2021/07/30 06:12:50;;;;;;;;;;;;;;;26.01;64.80;100518.34;5091042;28;1033;-65
2021/07/30 06:15:22;;;;;;;;;;;;;;;26.00;64.91;100518.47;5090733;28;1217;-65
2021/07/30 06:17:49;;;;;;;;;;;;;;;26.03;64.97;100518.19;5091116;28;1092;-66
2021/07/30 06:20:16;;;;;;;;;;;;;;;26.03;65.30;100515.53;5090690;28;1204;-66
2021/07/30 06:22:43;;;;;;;;;;;;;;;26.03;65.25;100515.53;5089920;28;1200;-65
2021/07/30 06:25:10;;;;;;;;;;;;;;;26.06;65.09;100512.56;5090160;28;1910;-64
2021/07/30 06:27:37;;;;;;;;;;;;;;;26.13;64.40;100513.72;5073546;28;2044;-63
2021/07/30 06:30:05;;;;;;;;;;;;;;;26.11;64.61;100515.69;5075585;28;1541;-63
2021/07/30 06:32:32;;;;;;;;;;;;;;;26.16;64.58;100518.81;5106801;28;1454;-61
2021/07/30 06:34:59;;;;;;;;;;;;;;;26.14;64.33;100531.44;5106850;27;1212;-62
2021/07/30 06:37:30;;;;;;;;;;;;;;;26.11;64.25;100533.53;5088981;28;1122;-62
2021/07/30 06:39:57;;;;;;;;;;;;;;;26.14;63.74;100531.44;5089264;28;1256;-63
2021/07/30 06:42:24;;;;;;;;;;;;;;;26.17;63.17;100528.50;5088643;28;1765;-63
2021/07/30 06:44:50;;;;;;;;;;;;;;;26.15;63.28;100532.25;5102763;28;1910;-62
2021/07/30 06:47:19;;;;;;;;;;;;;;;26.17;63.35;100531.19;5109358;28;1019;-64
2021/07/30 06:49:45;;;;;;;;;;;;;;;26.14;63.52;100539.44;5108957;28;1193;-63
2021/07/30 06:52:12;;;;;;;;;;;;;;;26.25;62.95;100538.47;5108598;28;1025;-65
2021/07/30 06:54:41;;;;;;;;;;;;;;;26.22;63.04;100536.94;5108336;28;1220;-65
2021/07/30 06:57:07;;;;;;;;;;;;;;;26.25;63.40;100538.47;5090043;28;1689;-64
2021/07/30 06:59:34;;;;;;;;;;;;;;;26.24;64.17;100547.44;5108350;28;1310;-66
2021/07/30 07:02:01;;;;;;;;;;;;;;;26.23;64.66;100541.28;5108858;28;1030;-61
2021/07/30 07:04:29;;;;;;;;;;;;;;;26.23;65.00;100540.44;5109262;28;1969;-63
2021/07/30 07:06:57;;;;;;;;;;;;;;;26.28;65.17;100544.38;5110090;28;754;-63
2021/07/30 07:09:24;;;;;;;;;;;;;;;26.34;65.22;100545.63;5110459;28;1306;-62
2021/07/30 07:11:50;;;;;;;;;;;;;;;26.33;64.61;100550.13;5086214;28;1656;-62
2021/07/30 07:14:17;;;;;;;;;;;;;;;26.37;65.17;100553.34;5092955;28;1392;-62
2021/07/30 07:16:44;;;;;;;;;;;;;;;26.39;65.15;100560.25;5089602;28;1028;-63
2021/07/30 07:19:11;;;;;;;;;;;;;;;26.40;65.34;100558.41;5107039;28;1457;-62
2021/07/30 07:21:38;;;;;;;;;;;;;;;26.34;65.43;100553.66;5106991;28;1211;-63
2021/07/30 07:24:05;;;;;;;;;;;;;;;26.34;65.37;100559.84;5104815;28;1910;-65
2021/07/30 07:26:35;;;;;;;;;;;;;;;26.32;65.33;100561.81;5089239;28;960;-62
2021/07/30 07:29:01;;;;;;;;;;;;;;;26.39;64.56;100559.41;5100339;28;1389;-63
2021/07/30 07:31:28;;;;;;;;;;;;;;;26.42;64.63;100561.78;5087152;28;940;-62
2021/07/30 07:33:55;;;;;;;;;;;;;;;26.46;64.56;100557.84;5085946;28;1291;-62
2021/07/30 07:36:22;;;;;;;;;;;;;;;26.43;64.92;100559.00;5086954;28;1419;-61
2021/07/30 07:38:49;;;;;;;;;;;;;;;26.49;64.09;100558.41;5086709;28;1267;-62
2021/07/30 07:41:15;;;;;;;;;;;;;;;26.49;63.71;100553.06;5087432;28;1032;-62
2021/07/30 07:43:42;;;;;;;;;;;;;;;26.45;63.52;100549.00;5087313;28;1910;-62
2021/07/30 07:46:09;;;;;;;;;;;;;;;26.45;63.63;100550.81;5087835;28;1304;-65
2021/07/30 07:48:36;;;;;;;;;;;;;;;26.46;63.51;100557.84;5068522;28;2054;-64
2021/07/30 07:51:03;;;;;;;;;;;;;;;26.44;63.62;100547.31;5069384;28;773;-63
2021/07/30 07:53:30;;;;;;;;;;;;;;;26.49;63.58;100552.22;5087576;28;1466;-62
2021/07/30 07:56:03;;;;;;;;;;;;;;;26.43;63.34;100555.47;5086776;28;1535;-62
2021/07/30 07:58:30;;;;;;;;;;;;;;;26.41;63.84;100552.94;5087779;28;1086;-62
2021/07/30 08:00:57;;;;;;;;;;;;;;;26.49;63.86;100547.75;5092552;28;1885;-62
2021/07/30 08:03:24;;;;;;;;;;;;;;;26.49;63.46;100544.22;5103875;28;1196;-62
2021/07/30 08:05:51;;;;;;;;;;;;;;;26.45;63.04;100540.13;5088715;28;1914;-62
2021/07/30 08:08:18;;;;;;;;;;;;;;;26.48;63.47;100540.69;5091188;28;1055;-62
2021/07/30 08:10:45;;;;;;;;;;;;;;;26.50;64.11;100538.75;5107721;28;1287;-62
2021/07/30 08:13:12;;;;;;;;;;;;;;;26.50;63.47;100532.56;5087964;28;1399;-62
2021/07/30 08:15:40;;;;;;;;;;;;;;;26.51;63.66;100534.22;5087576;28;1303;-62
2021/07/30 08:18:07;;;;;;;;;;;;;;;26.53;62.70;100533.13;5094142;28;1154;-62
2021/07/30 08:20:34;;;;;;;;;;;;;;;26.53;63.12;100538.47;5087797;28;1244;-62
2021/07/30 08:23:01;;;;;;;;;;;;;;;26.54;62.97;100539.28;5087059;28;1087;-62
2021/07/30 08:25:28;;;;;;;;;;;;;;;26.53;62.64;100534.94;5087475;28;1905;-61
2021/07/30 08:27:54;;;;;;;;;;;;;;;26.56;62.48;100535.50;5087344;28;975;-62
2021/07/30 08:30:21;;;;;;;;;;;;;;;26.63;61.65;100529.59;5086172;28;1403;-62
2021/07/30 08:32:49;;;;;;;;;;;;;;;26.62;62.59;100523.41;5083806;28;1071;-62
2021/07/30 08:35:15;;;;;;;;;;;;;;;26.60;62.45;100525.34;5082974;28;1338;-63
2021/07/30 08:37:42;;;;;;;;;;;;;;;26.60;62.53;100522.69;5085734;28;1064;-62
2021/07/30 08:40:09;;;;;;;;;;;;;;;26.60;62.17;100523.53;5086053;28;1224;-61
2021/07/30 08:42:36;;;;;;;;;;;;;;;26.66;61.19;100529.31;5087264;28;1665;-62
2021/07/30 08:45:04;;;;;;;;;;;;;;;26.66;61.09;100529.31;5086356;28;1906;-61
2021/07/30 08:47:30;;;;;;;;;;;;;;;26.70;60.56;100523.50;5087011;28;1063;-61
2021/07/30 08:49:58;;;;;;;;;;;;;;;26.75;62.56;100525.78;5086545;28;1256;-62
2021/07/30 08:52:30;;;;;;;;;;;;;;;26.68;62.04;100530.00;5086210;28;1059;-63
2021/07/30 08:54:57;;;;;;;;;;;;;;;26.69;62.00;100531.69;5086003;28;1339;-63
2021/07/30 08:57:24;;;;;;;;;;;;;;;26.73;61.90;100535.75;5086841;28;1109;-62
2021/07/30 08:59:50;;;;;;;;;;;;;;;26.69;61.11;100521.81;5105055;28;1308;-63
2021/07/30 09:02:17;;;;;;;;;;;;;;;26.74;61.45;100532.09;5106407;28;1071;-63
2021/07/30 09:04:44;;;;;;;;;;;;;;;26.74;62.06;100534.75;5087622;28;1985;-63
2021/07/30 09:07:13;;;;;;;;;;;;;;;26.72;61.90;100532.22;5122575;28;1039;-64
2021/07/30 09:09:51;;;;;;;;;;;;;;;26.76;61.02;100540.78;5106424;28;1303;-63
2021/07/30 09:12:20;;;;;;;;;;;;;;;26.76;60.53;100538.13;5106606;28;984;-63
2021/07/30 09:14:48;;;;;;;;;;;;;;;26.75;62.18;100531.13;5106732;28;1212;-64
2021/07/30 09:17:15;;;;;;;;;;;;;;;26.75;59.98;100531.94;5108579;28;941;-64
2021/07/30 09:19:58;;;;;;;;;;;;;;;26.78;62.17;100528.16;5108450;28;1251;-62
2021/07/30 09:22:26;;;;;;;;;;;;;;;26.77;62.38;100519.28;5124092;28;1580;-63
2021/07/30 09:24:55;;;;;;;;;;;;;;;26.75;60.35;100521.25;5108416;28;1917;-63
2021/07/30 09:27:22;;;;;;;;;;;;;;;26.77;60.44;100513.94;5108078;28;893;-64
2021/07/30 09:29:49;;;;;;;;;;;;;;;26.80;62.43;100518.19;5108500;28;1337;-63
2021/07/30 09:32:16;;;;;;;;;;;;;;;26.75;63.10;100513.22;5108181;28;1006;-63
2021/07/30 09:34:44;;;;;;;;;;;;;;;26.76;60.72;100517.59;5108020;28;1243;-63
2021/07/30 09:37:13;;;;;;;;;;;;;;;26.77;62.39;100513.09;5108223;28;1124;-63
2021/07/30 09:39:45;;;;;;;;;;;;;;;26.81;61.37;100514.53;5107784;28;1221;-63
2021/07/30 09:42:19;;;;;;;;;;;;;;;26.81;62.46;100522.56;5107857;28;1379;-64
2021/07/30 09:44:52;;;;;;;;;;;;;;;26.86;63.17;100509.59;5071435;28;1909;-63
2021/07/30 09:47:22;;;;;;;;;;;;;;;26.84;60.97;100520.41;5107909;28;1081;-64
2021/07/30 09:49:52;;;;;;;;;;;;;;;26.84;62.24;100517.75;5107708;28;1192;-64
2021/07/30 09:52:18;;;;;;;;;;;;;;;26.86;62.38;100514.94;5107905;28;1167;-65
2021/07/30 09:54:49;;;;;;;;;;;;;;;26.87;62.17;100513.97;5098451;28;1606;-63
2021/07/30 09:57:17;;;;;;;;;;;;;;;26.86;63.56;100517.59;5118661;27;2345;-62
2021/07/30 09:59:44;;;;;;;;;;;;;;;26.86;61.26;100523.81;5090407;28;1278;-63
2021/07/30 10:02:13;;;;;;;;;;;;;;;26.88;60.95;100515.63;5093935;28;1149;-63
2021/07/30 10:04:43;;;;;;;;;;;;;;;26.89;63.12;100515.50;5110225;28;1918;-63
2021/07/30 10:07:12;;;;;;;;;;;;;;;26.93;62.78;100516.88;5110488;28;1308;-62
2021/07/30 10:09:42;;;;;;;;;;;;;;;26.90;62.70;100508.31;5110146;28;1310;-62
2021/07/30 10:12:09;;;;;;;;;;;;;;;26.89;62.67;100507.47;5093298;28;1216;-61
2021/07/30 10:14:35;;;;;;;;;;;;;;;26.90;62.63;100505.66;5089520;28;1279;-62
2021/07/30 10:17:02;;;;;;;;;;;;;;;26.92;62.58;100491.16;5089993;28;1015;-62
2021/07/30 10:19:32;;;;;;;;;;;;;;;26.93;61.31;100492.00;5089209;28;1324;-61
2021/07/30 10:22:01;;;;;;;;;;;;;;;26.94;62.75;100493.66;5089234;28;919;-63
2021/07/30 10:24:29;;;;;;;;;;;;;;;26.95;63.17;100490.00;5089390;28;1910;-64
2021/07/30 10:27:00;;;;;;;;;;;;;;;26.91;62.50;100491.28;5089556;28;1071;-63
2021/07/30 10:29:26;;;;;;;;;;;;;;;26.92;63.02;100487.63;5107715;28;1311;-63
2021/07/30 10:31:53;;;;;;;;;;;;;;;26.92;62.97;100485.81;5109424;28;1122;-63
2021/07/30 10:34:58;;;;;;;;;;;;;;;27.00;64.02;100493.06;5109527;28;1255;-63
2021/07/30 10:37:38;;;;;;;;;;;;;;;27.01;63.90;100489.41;5046350;28;1053;-64
2021/07/30 10:40:23;;;;;;;;;;;;;;;27.00;63.16;100480.56;5046059;28;1220;-63
2021/07/30 10:42:59;;;;;;;;;;;;;;;26.97;62.60;100488.03;5089686;28;1339;-62
2021/07/30 10:45:26;;;;;;;;;;;;;;;27.01;62.10;100486.75;5109062;28;1905;-62
2021/07/30 10:48:11;;;;;;;;;;;;;;;27.03;62.31;100492.78;5109599;28;1099;-63
2021/07/30 10:50:48;;;;;;;;;;;;;;;27.04;61.91;100481.09;5109500;28;1214;-63
2021/07/30 10:53:34;;;;;;;;;;;;;;;27.07;63.64;100488.84;5109475;28;930;-62
2021/07/30 10:56:01;;;;;;;;;;;;;;;27.06;63.39;100481.78;5109162;28;1394;-62
2021/07/30 10:58:43;;;;;;;;;;;;;;;27.07;62.27;100478.13;5095809;28;1094;-62
2021/07/30 11:01:20;;;;;;;;;;;;;;;27.06;61.31;100490.66;5086686;28;1440;-63
2021/07/30 11:06:20;;;;;;;;;;;;;;;27.17;63.93;100478.94;5069562;28;1989;-66
2021/07/30 11:08:59;;;;;;;;;;;;;;;27.15;63.26;100480.91;5089111;28;1315;-65
2021/07/30 11:11:45;;;;;;;;;;;;;;;27.13;62.51;100489.09;5049278;28;1546;-66
2021/07/30 11:14:12;;;;;;;;;;;;;;;27.13;63.73;100483.75;5077620;28;1374;-62
2021/07/30 11:16:42;;;;;;;;;;;;;;;27.15;63.85;100480.91;5067445;28;786;-66
2021/07/30 11:19:09;;;;;;;;;;;;;;;27.22;63.94;100481.16;5071856;28;1295;-65
2021/07/30 11:21:36;;;;;;;;;;;;;;;27.17;63.57;100484.28;5086408;28;782;-63
2021/07/30 11:24:03;;;;;;;;;;;;;;;27.22;63.30;100478.50;5075709;28;1397;-63
2021/07/30 11:26:30;;;;;;;;;;;;;;;27.22;63.84;100487.34;5087174;28;1919;-64
2021/07/30 11:29:02;;;;;;;;;;;;;;;27.31;64.48;100475.78;5088175;28;1560;-65
2021/07/30 11:31:29;;;;;;;;;;;;;;;27.26;62.88;100487.91;5088092;28;1599;-65
2021/07/30 11:33:55;;;;;;;;;;;;;;;27.24;64.20;100481.88;5087354;28;1373;-65
2021/07/30 11:36:23;;;;;;;;;;;;;;;27.24;63.32;100487.22;5088747;28;840;-65
2021/07/30 11:38:54;;;;;;;;;;;;;;;27.26;62.94;100475.38;5071225;28;1803;-63
2021/07/30 11:41:22;;;;;;;;;;;;;;;27.27;63.76;100473.56;5049825;28;1541;-62
2021/07/30 11:43:59;;;;;;;;;;;;;;;27.30;64.01;100466.06;5069609;28;1522;-65
2021/07/30 11:46:26;;;;;;;;;;;;;;;27.28;63.07;100470.72;5062308;28;1979;-62
2021/07/30 11:48:54;;;;;;;;;;;;;;;27.29;63.36;100472.41;5086288;28;1283;-65
2021/07/30 11:51:22;;;;;;;;;;;;;;;27.29;62.51;100467.06;5087537;28;1617;-65
2021/07/30 11:53:53;;;;;;;;;;;;;;;27.32;62.81;100469.44;5053026;28;1296;-64
2021/07/30 11:56:20;;;;;;;;;;;;;;;27.33;63.15;100465.75;5088000;28;792;-61
2021/07/30 11:58:56;;;;;;;;;;;;;;;27.35;62.85;100460.28;5086133;28;1379;-63
2021/07/30 12:01:23;;;;;;;;;;;;;;;27.38;63.24;100466.16;5087780;28;1601;-62
2021/07/30 12:04:09;;;;;;;;;;;;;;;27.32;63.85;100450.72;5078144;28;1327;-61
2021/07/30 12:06:38;;;;;;;;;;;;;;;27.37;63.45;100463.63;5087344;28;1913;-61
2021/07/30 12:09:06;;;;;;;;;;;;;;;27.33;62.79;100447.03;5087511;28;1417;-62
2021/07/30 12:11:34;;;;;;;;;;;;;;;27.30;62.42;100459.88;5087493;28;1160;-60
2021/07/30 12:14:01;;;;;;;;;;;;;;;27.29;63.34;100455.53;5087335;28;1303;-61
2021/07/30 12:16:28;;;;;;;;;;;;;;;27.30;62.81;100449.19;5087344;28;798;-61
2021/07/30 12:18:56;;;;;;;;;;;;;;;27.29;62.27;100444.81;5087002;28;1394;-62
2021/07/30 12:21:27;;;;;;;;;;;;;;;27.30;62.67;100444.66;5069264;28;915;-62
2021/07/30 12:24:07;;;;;;;;;;;;;;;27.31;63.64;100446.34;5087105;28;1303;-60
2021/07/30 12:26:35;;;;;;;;;;;;;;;27.30;62.75;100447.34;5068110;28;1949;-61
2021/07/30 12:29:03;;;;;;;;;;;;;;;27.30;62.45;100451.88;5085823;28;1372;-60
2021/07/30 12:31:31;;;;;;;;;;;;;;;27.33;62.48;100457.72;5068357;28;730;-61
2021/07/30 12:34:19;;;;;;;;;;;;;;;27.33;62.15;100447.03;5085781;28;1302;-61
2021/07/30 12:36:49;;;;;;;;;;;;;;;27.37;61.99;100436.88;5051795;28;1632;-61
2021/07/30 12:39:16;;;;;;;;;;;;;;;27.49;63.07;100441.91;5086052;28;1401;-68
2021/07/30 12:41:49;;;;;;;;;;;;;;;27.53;61.94;100429.91;5084778;28;968;-70
2021/07/30 12:44:17;;;;;;;;;;;;;;;27.58;63.44;100427.63;5085397;28;1338;-71
2021/07/30 12:46:48;;;;;;;;;;;;;;;27.57;62.91;100425.94;5085158;28;2004;-70
2021/07/30 12:49:26;;;;;;;;;;;;;;;27.58;62.78;100435.66;5086170;28;1255;-68
2021/07/30 12:51:52;;;;;;;;;;;;;;;27.60;62.31;100428.31;5080927;28;1225;-68
2021/07/30 12:54:19;;;;;;;;;;;;;;;27.40;60.35;100426.72;5100770;28;1326;-65